createdAt,value
2019-01-19T00:01:27.523Z,9.73
2019-01-19T00:04:49.203Z,9.23
2019-01-19T00:08:10.974Z,9.40
2019-01-19T00:11:04.803Z,8.20
2019-01-19T00:14:17.424Z,7.87
2019-01-19T00:17:25.744Z,7.73
2019-01-19T00:20:26.298Z,8.97
2019-01-19T00:23:25.395Z,8.67
2019-01-19T00:26:32.694Z,8.80
2019-01-19T00:29:23.243Z,9.30
2019-01-19T00:32:26.341Z,8.27
2019-01-19T00:35:24.324Z,9.07
2019-01-19T00:38:13.694Z,8.93
2019-01-19T00:41:21.869Z,8.37
2019-01-19T00:44:19.159Z,9.07
2019-01-19T00:47:29.549Z,8.83
2019-01-19T00:50:22.634Z,8.13
2019-01-19T00:53:09.529Z,8.90
2019-01-19T00:56:16.586Z,8.27
2019-01-19T00:59:08.681Z,9.23
2019-01-19T01:02:15.810Z,9.23
2019-01-19T01:04:57.009Z,7.87
2019-01-19T01:08:07.149Z,8.03
2019-01-19T01:10:50.724Z,8.87
2019-01-19T01:14:02.209Z,8.83
2019-01-19T01:17:17.180Z,8.00
2019-01-19T01:20:32.469Z,7.60
2019-01-19T01:23:25.354Z,8.73
2019-01-19T01:26:59.411Z,7.73
2019-01-19T01:30:28.449Z,7.27
2019-01-19T01:33:43.644Z,8.40
2019-01-19T01:37:02.859Z,7.80
2019-01-19T01:40:14.390Z,7.90
2019-01-19T01:43:23.454Z,6.83
2019-01-19T01:46:27.609Z,7.40
2019-01-19T01:49:26.739Z,7.80
2019-01-19T01:52:40.659Z,6.63
2019-01-19T01:55:20.535Z,8.03
2019-01-19T01:58:10.534Z,8.83
2019-01-19T02:01:13.228Z,8.37
2019-01-19T02:04:32.399Z,8.67
2019-01-19T02:07:39.314Z,8.70
2019-01-19T02:10:53.104Z,9.73
2019-01-19T02:13:53.485Z,9.03
2019-01-19T02:17:15.394Z,9.07
2019-01-19T02:20:03.833Z,8.83
2019-01-19T02:23:01.800Z,9.27
2019-01-19T02:25:58.950Z,10.30
2019-01-19T02:29:14.463Z,9.27
2019-01-19T02:32:08.460Z,8.20
2019-01-19T02:34:56.953Z,9.13
2019-01-19T02:37:54.278Z,9.10
2019-01-19T02:41:01.144Z,8.80
2019-01-19T02:44:25.633Z,9.10
2019-01-19T02:47:24.293Z,8.90
2019-01-19T02:50:27.329Z,9.17
2019-01-19T02:53:08.206Z,9.37
2019-01-19T02:55:54.300Z,8.73
2019-01-19T02:59:21.824Z,9.60
2019-01-19T03:02:28.304Z,8.63
2019-01-19T03:05:56.263Z,8.40
2019-01-19T03:08:54.820Z,8.67
2019-01-19T03:12:09.729Z,8.50
2019-01-19T03:15:25.197Z,8.37
2019-01-19T03:18:30.715Z,7.83
2019-01-19T03:21:39.395Z,7.37
2019-01-19T03:24:47.906Z,7.60
2019-01-19T03:27:56.374Z,8.20
2019-01-19T03:31:12.282Z,8.67
2019-01-19T03:34:14.459Z,7.90
2019-01-19T03:37:17.741Z,8.13
2019-01-19T03:40:24.144Z,8.83
2019-01-19T03:43:35.610Z,9.83
2019-01-19T03:46:57.859Z,11.10
2019-01-19T03:50:05.197Z,10.67
2019-01-19T03:53:06.280Z,10.93
2019-01-19T03:56:25.419Z,11.53
2019-01-19T03:59:33.738Z,11.63
2019-01-19T04:02:51.119Z,12.83
2019-01-19T04:05:54.449Z,11.73
2019-01-19T04:09:01.720Z,16.70
2019-01-19T04:12:03.719Z,11.50
2019-01-19T04:14:50.045Z,14.20
2019-01-19T04:18:13.336Z,21.60
2019-01-19T04:21:28.224Z,13.23
2019-01-19T04:24:05.504Z,11.77
2019-01-19T04:26:41.586Z,11.60
2019-01-19T04:29:14.554Z,11.20
2019-01-19T04:31:47.369Z,9.67
2019-01-19T04:34:19.829Z,8.97
2019-01-19T04:36:53.963Z,9.30
2019-01-19T04:39:26.590Z,8.30
2019-01-19T04:41:58.750Z,8.77
2019-01-19T04:44:31.226Z,10.00
2019-01-19T04:47:04.088Z,9.80
2019-01-19T04:49:36.650Z,8.03
2019-01-19T04:52:09.066Z,7.67
2019-01-19T04:54:41.543Z,9.20
2019-01-19T04:57:14.284Z,9.30
2019-01-19T04:59:46.994Z,9.70
2019-01-19T05:02:19.274Z,9.27
2019-01-19T05:04:51.556Z,8.93
2019-01-19T05:07:23.919Z,7.07
2019-01-19T05:09:56.990Z,7.97
2019-01-19T05:12:29.279Z,7.57
2019-01-19T05:15:01.954Z,7.63
2019-01-19T05:17:34.953Z,8.20
2019-01-19T05:20:08.475Z,8.10
2019-01-19T05:22:40.735Z,7.53
2019-01-19T05:25:13.393Z,7.30
2019-01-19T05:27:46.134Z,6.87
2019-01-19T05:30:21.226Z,6.37
2019-01-19T05:32:53.732Z,7.50
2019-01-19T05:35:27.212Z,6.97
2019-01-19T05:38:01.796Z,8.90
2019-01-19T05:40:33.992Z,7.77
2019-01-19T05:43:06.315Z,8.50
2019-01-19T05:45:38.623Z,7.30
2019-01-19T05:48:11.319Z,7.70
2019-01-19T05:50:44.480Z,6.87
2019-01-19T05:53:16.930Z,7.73
2019-01-19T05:55:49.642Z,6.90
2019-01-19T05:58:22.729Z,6.20
2019-01-19T06:00:55.489Z,7.80
2019-01-19T06:03:27.999Z,6.67
2019-01-19T06:06:01.071Z,7.43
2019-01-19T06:08:34.243Z,6.50
2019-01-19T06:11:08.144Z,7.57
2019-01-19T06:13:40.584Z,7.60
2019-01-19T06:16:12.799Z,6.50
2019-01-19T06:18:45.609Z,6.97
2019-01-19T06:21:19.045Z,7.77
2019-01-19T06:23:51.799Z,7.80
2019-01-19T06:26:24.514Z,8.07
2019-01-19T06:28:57.254Z,8.77
2019-01-19T06:31:29.575Z,9.37
2019-01-19T06:34:01.932Z,9.90
2019-01-19T06:36:34.515Z,9.50
2019-01-19T06:39:11.005Z,8.07
2019-01-19T06:41:43.234Z,9.43
2019-01-19T06:44:15.482Z,8.77
2019-01-19T06:46:47.827Z,9.40
2019-01-19T06:49:20.719Z,8.30
2019-01-19T06:51:53.259Z,10.17
2019-01-19T06:54:27.199Z,8.97
2019-01-19T06:56:59.734Z,8.13
2019-01-19T06:59:32.169Z,7.73
2019-01-19T07:02:05.264Z,8.87
2019-01-19T07:04:38.124Z,8.03
2019-01-19T07:07:10.869Z,7.90
2019-01-19T07:09:43.724Z,6.77
2019-01-19T07:12:17.634Z,6.53
2019-01-19T07:14:51.475Z,6.87
2019-01-19T07:17:23.930Z,6.43
2019-01-19T07:19:56.539Z,6.00
2019-01-19T07:22:29.754Z,5.47
2019-01-19T07:25:02.244Z,4.07
2019-01-19T07:27:34.838Z,4.77
2019-01-19T07:30:10.119Z,5.20
2019-01-19T07:32:45.558Z,5.47
2019-01-19T07:35:18.839Z,2.70
2019-01-19T07:37:51.859Z,1.40
2019-01-19T07:40:25.149Z,1.80
2019-01-19T07:43:00.929Z,2.47
2019-01-19T07:45:33.249Z,2.27
2019-01-19T07:48:06.345Z,2.33
2019-01-19T07:50:41.926Z,3.17
2019-01-19T07:53:16.799Z,2.50
2019-01-19T07:55:49.599Z,2.43
2019-01-19T07:58:22.510Z,2.03
2019-01-19T08:00:56.418Z,1.83
2019-01-19T08:03:29.489Z,1.73
2019-01-19T08:06:02.174Z,2.13
2019-01-19T08:08:34.852Z,2.27
2019-01-19T08:11:08.159Z,2.07
2019-01-19T08:13:42.539Z,2.00
2019-01-19T08:16:14.833Z,2.10
2019-01-19T08:18:47.328Z,2.47
2019-01-19T08:21:20.122Z,2.50
2019-01-19T08:23:53.363Z,2.50
2019-01-19T08:26:25.695Z,3.10
2019-01-19T08:28:58.564Z,3.37
2019-01-19T08:31:31.025Z,2.50
2019-01-19T08:34:03.577Z,2.83
2019-01-19T08:36:36.619Z,2.50
2019-01-19T08:39:10.849Z,2.60
2019-01-19T08:41:43.349Z,2.70
2019-01-19T08:44:15.609Z,2.60
2019-01-19T08:46:48.842Z,2.70
2019-01-19T08:49:21.810Z,2.43
2019-01-19T08:51:54.529Z,2.30
2019-01-19T08:54:26.830Z,2.27
2019-01-19T08:56:59.204Z,2.30
2019-01-19T08:59:31.955Z,1.93
2019-01-19T09:02:04.773Z,2.27
2019-01-19T09:04:37.220Z,2.80
2019-01-19T09:07:10.149Z,1.93
2019-01-19T09:09:42.849Z,2.13
2019-01-19T09:12:16.055Z,2.27
2019-01-19T09:14:50.539Z,2.80
2019-01-19T09:17:23.834Z,2.10
2019-01-19T09:19:56.438Z,2.47
2019-01-19T09:22:29.258Z,2.67
2019-01-19T09:25:01.819Z,2.60
2019-01-19T09:27:34.959Z,2.60
2019-01-19T09:30:10.277Z,2.10
2019-01-19T09:32:43.004Z,2.47
2019-01-19T09:35:15.954Z,2.07
2019-01-19T09:37:48.484Z,2.30
2019-01-19T09:40:20.929Z,2.53
2019-01-19T09:42:53.503Z,2.40
2019-01-19T09:45:26.278Z,2.60
2019-01-19T09:47:58.889Z,2.30
2019-01-19T09:50:32.034Z,2.83
2019-01-19T09:53:04.419Z,2.70
2019-01-19T09:55:36.650Z,2.27
2019-01-19T09:58:09.293Z,2.17
2019-01-19T10:00:45.812Z,2.60
2019-01-19T10:03:16.408Z,2.60
2019-01-19T10:05:49.119Z,2.40
2019-01-19T10:08:21.814Z,2.30
2019-01-19T10:10:54.239Z,2.73
2019-01-19T10:13:26.759Z,2.47
2019-01-19T10:16:00.288Z,3.10
2019-01-19T10:18:33.258Z,2.73
2019-01-19T10:21:06.268Z,3.63
2019-01-19T10:23:38.589Z,2.90
2019-01-19T10:26:11.901Z,3.13
2019-01-19T10:28:46.003Z,3.87
2019-01-19T10:31:18.570Z,3.27
2019-01-19T10:33:51.529Z,3.43
2019-01-19T10:36:24.792Z,3.57
2019-01-19T10:38:57.631Z,4.93
2019-01-19T10:41:31.646Z,3.63
2019-01-19T10:44:04.949Z,4.03
2019-01-19T10:46:37.969Z,4.00
2019-01-19T10:49:10.739Z,4.20
2019-01-19T10:51:42.909Z,3.97
2019-01-19T10:54:16.089Z,3.87
2019-01-19T10:56:48.481Z,3.57
2019-01-19T10:59:20.899Z,3.93
2019-01-19T11:01:53.174Z,4.40
2019-01-19T11:04:26.090Z,3.70
2019-01-19T11:06:58.524Z,4.40
2019-01-19T11:09:31.324Z,4.17
2019-01-19T11:12:03.488Z,4.50
2019-01-19T11:14:36.210Z,4.50
2019-01-19T11:17:09.289Z,3.63
2019-01-19T11:19:41.544Z,3.70
2019-01-19T11:22:14.254Z,3.73
2019-01-19T11:24:46.819Z,4.33
2019-01-19T11:27:19.694Z,4.70
2019-01-19T11:29:52.069Z,5.03
2019-01-19T11:32:24.293Z,4.33
2019-01-19T11:34:56.985Z,4.33
2019-01-19T11:37:29.674Z,5.10
2019-01-19T11:40:02.439Z,5.03
2019-01-19T11:42:37.271Z,4.50
2019-01-19T11:45:12.214Z,3.90
2019-01-19T11:47:45.343Z,4.30
2019-01-19T11:50:18.171Z,4.47
2019-01-19T11:52:51.109Z,3.67
2019-01-19T11:55:23.505Z,4.33
2019-01-19T11:58:01.644Z,4.97
2019-01-19T12:00:36.153Z,5.00
2019-01-19T12:03:08.924Z,4.50
2019-01-19T12:05:41.804Z,3.30
2019-01-19T12:08:19.669Z,3.93
2019-01-19T12:10:50.994Z,3.10
2019-01-19T12:13:23.964Z,3.27
2019-01-19T12:15:56.715Z,3.67
2019-01-19T12:18:29.494Z,3.63
2019-01-19T12:21:02.454Z,3.30
2019-01-19T12:23:35.524Z,3.87
2019-01-19T12:26:09.044Z,3.33
2019-01-19T12:28:41.984Z,3.00
2019-01-19T12:31:14.314Z,3.07
2019-01-19T12:33:47.649Z,3.27
2019-01-19T12:36:20.315Z,3.17
2019-01-19T12:38:52.914Z,3.60
2019-01-19T12:41:25.825Z,3.73
2019-01-19T12:43:58.273Z,4.50
2019-01-19T12:46:31.844Z,4.63
2019-01-19T12:49:04.239Z,4.07
2019-01-19T12:51:36.519Z,2.90
2019-01-19T12:54:09.079Z,3.40
2019-01-19T12:56:42.509Z,2.80
2019-01-19T12:59:14.813Z,3.70
2019-01-19T13:01:47.774Z,4.13
2019-01-19T13:04:20.536Z,3.50
2019-01-19T13:07:00.564Z,2.80
2019-01-19T13:10:05.004Z,3.33
2019-01-19T13:12:46.076Z,3.13
2019-01-19T13:15:57.800Z,2.73
2019-01-19T13:19:13.715Z,3.00
2019-01-19T13:22:35.584Z,3.90
2019-01-19T13:25:58.348Z,3.60
2019-01-19T13:29:22.213Z,4.40
2019-01-19T13:32:10.763Z,3.03
2019-01-19T13:35:35.638Z,3.53
2019-01-19T13:38:50.289Z,3.80
2019-01-19T13:42:09.208Z,3.97
2019-01-19T13:45:30.584Z,3.27
2019-01-19T13:48:46.848Z,3.77
2019-01-19T13:52:02.774Z,3.40
2019-01-19T13:55:20.769Z,3.40
2019-01-19T13:58:27.924Z,3.50
2019-01-19T14:01:30.693Z,4.50
2019-01-19T14:04:22.374Z,4.30
2019-01-19T14:07:46.920Z,3.77
2019-01-19T14:10:45.169Z,4.03
2019-01-19T14:14:09.799Z,4.00
2019-01-19T14:17:07.878Z,4.50
2019-01-19T14:20:06.224Z,3.97
2019-01-19T14:23:01.389Z,4.43
2019-01-19T14:26:18.779Z,4.40
2019-01-19T14:29:50.534Z,3.90
2019-01-19T14:33:21.321Z,3.93
2019-01-19T14:36:24.548Z,4.53
2019-01-19T14:39:30.273Z,3.63
2019-01-19T14:42:36.184Z,4.97
2019-01-19T14:45:55.730Z,3.97
2019-01-19T14:49:26.789Z,4.47
2019-01-19T14:52:23.314Z,4.40
2019-01-19T14:55:39.916Z,4.83
2019-01-19T14:59:11.264Z,3.90
2019-01-19T15:02:15.299Z,4.73
2019-01-19T15:05:05.714Z,4.13
2019-01-19T15:08:19.004Z,4.77
2019-01-19T15:11:42.669Z,4.27
2019-01-19T15:14:32.839Z,3.03
2019-01-19T15:17:39.319Z,3.40
2019-01-19T15:20:52.149Z,3.33
2019-01-19T15:24:17.259Z,3.80
2019-01-19T15:27:19.074Z,3.27
2019-01-19T15:30:29.988Z,3.00
2019-01-19T15:33:48.622Z,3.50
2019-01-19T15:36:52.503Z,3.77
2019-01-19T15:40:11.610Z,4.57
2019-01-19T15:43:13.438Z,4.63
2019-01-19T15:46:29.146Z,4.00
2019-01-19T15:49:39.864Z,4.20
2019-01-19T15:52:51.808Z,4.53
2019-01-19T15:55:52.064Z,4.33
2019-01-19T15:59:00.553Z,5.37
2019-01-19T16:02:09.094Z,4.20
2019-01-19T16:05:18.949Z,3.97
2019-01-19T16:08:17.744Z,4.33
2019-01-19T16:11:12.543Z,4.30
2019-01-19T16:14:13.489Z,3.90
2019-01-19T16:17:20.773Z,4.17
2019-01-19T16:20:31.792Z,4.93
2019-01-19T16:23:39.443Z,4.77
2019-01-19T16:27:00.470Z,4.70
2019-01-19T16:29:59.600Z,4.73
2019-01-19T16:32:53.048Z,3.83
2019-01-19T16:35:34.944Z,5.00
2019-01-19T16:38:47.389Z,4.30
2019-01-19T16:41:55.686Z,4.53
2019-01-19T16:44:56.999Z,4.23
2019-01-19T16:48:03.624Z,4.83
2019-01-19T16:51:01.025Z,5.23
2019-01-19T16:54:04.858Z,4.90
2019-01-19T16:57:20.834Z,4.20
2019-01-19T17:00:16.783Z,5.33
2019-01-19T17:03:27.119Z,4.67
2019-01-19T17:06:35.639Z,5.03
2019-01-19T17:09:33.034Z,5.30
2019-01-19T17:12:30.709Z,5.67
2019-01-19T17:15:32.114Z,5.73
2019-01-19T17:19:04.805Z,4.70
2019-01-19T17:21:58.380Z,5.37
2019-01-19T17:25:01.488Z,5.37
2019-01-19T17:27:59.289Z,4.43
2019-01-19T17:31:07.834Z,4.47
2019-01-19T17:34:13.325Z,5.00
2019-01-19T17:37:13.299Z,4.93
2019-01-19T17:40:14.304Z,4.77
2019-01-19T17:43:30.650Z,5.47
2019-01-19T17:46:11.344Z,4.90
2019-01-19T17:49:04.539Z,4.63
2019-01-19T17:52:32.584Z,4.83
2019-01-19T17:56:00.534Z,5.40
2019-01-19T17:59:16.659Z,4.90
2019-01-19T18:02:34.899Z,5.50
2019-01-19T18:05:34.848Z,5.67
2019-01-19T18:08:33.409Z,5.33
2019-01-19T18:11:44.189Z,5.30
2019-01-19T18:14:52.083Z,5.77
2019-01-19T18:18:19.281Z,4.93
2019-01-19T18:21:44.523Z,4.50
2019-01-19T18:25:05.049Z,4.83
2019-01-19T18:28:27.204Z,4.77
2019-01-19T18:31:35.135Z,4.17
2019-01-19T18:34:48.164Z,4.73
2019-01-19T18:37:55.554Z,5.20
2019-01-19T18:41:27.999Z,5.30
2019-01-19T18:44:40.500Z,5.33
2019-01-19T18:47:43.009Z,5.03
2019-01-19T18:51:13.946Z,5.20
2019-01-19T18:54:26.443Z,4.43
2019-01-19T18:57:51.688Z,4.73
2019-01-19T19:00:52.499Z,4.73
2019-01-19T19:04:01.132Z,5.70
2019-01-19T19:07:05.485Z,5.67
2019-01-19T19:10:02.098Z,4.90
2019-01-19T19:13:07.914Z,4.57
2019-01-19T19:16:08.864Z,4.77
2019-01-19T19:19:28.505Z,4.20
2019-01-19T19:22:44.484Z,3.97
2019-01-19T19:25:54.234Z,4.27
2019-01-19T19:29:02.084Z,4.43
2019-01-19T19:32:19.134Z,4.27
2019-01-19T19:35:10.214Z,3.97
2019-01-19T19:38:16.265Z,4.30
2019-01-19T19:41:44.959Z,3.60
2019-01-19T19:44:54.879Z,4.73
2019-01-19T19:48:08.199Z,5.00
2019-01-19T19:51:05.485Z,4.70
2019-01-19T19:53:39.094Z,4.43
2019-01-19T19:56:11.641Z,4.63
2019-01-19T19:58:44.876Z,4.63
2019-01-19T20:01:17.543Z,4.33
2019-01-19T20:03:49.994Z,4.90
2019-01-19T20:06:23.169Z,3.97
2019-01-19T20:08:57.139Z,4.67
2019-01-19T20:11:30.249Z,3.97
2019-01-19T20:14:03.049Z,4.30
2019-01-19T20:16:45.101Z,4.13
2019-01-19T20:19:17.674Z,4.27
2019-01-19T20:21:54.719Z,4.77
2019-01-19T20:24:27.695Z,4.43
2019-01-19T20:27:00.789Z,4.50
2019-01-19T20:29:33.809Z,4.20
2019-01-19T20:32:07.599Z,4.33
2019-01-19T20:34:40.211Z,4.27
2019-01-19T20:37:12.625Z,3.83
2019-01-19T20:39:45.474Z,4.60
2019-01-19T20:42:18.355Z,4.13
2019-01-19T20:44:51.676Z,4.07
2019-01-19T20:47:24.789Z,3.97
2019-01-19T20:49:57.599Z,3.73
2019-01-19T20:52:30.603Z,4.60
2019-01-19T20:55:05.597Z,4.70
2019-01-19T20:57:38.409Z,3.90
2019-01-19T21:00:14.409Z,4.33
2019-01-19T21:02:48.850Z,4.97
2019-01-19T21:05:21.259Z,4.10
2019-01-19T21:07:54.554Z,3.90
2019-01-19T21:10:31.765Z,4.30
2019-01-19T21:13:02.536Z,4.97
2019-01-19T21:15:35.739Z,4.40
2019-01-19T21:18:08.829Z,4.37
2019-01-19T21:20:42.244Z,4.30
2019-01-19T21:23:15.139Z,3.77
2019-01-19T21:25:47.598Z,3.20
2019-01-19T21:28:21.349Z,3.13
2019-01-19T21:30:54.147Z,4.23
2019-01-19T21:33:26.884Z,2.73
2019-01-19T21:35:59.389Z,2.93
2019-01-19T21:38:33.083Z,3.10
2019-01-19T21:41:06.140Z,2.80
2019-01-19T21:43:40.139Z,3.27
2019-01-19T21:46:12.909Z,2.83
2019-01-19T21:48:45.934Z,3.47
2019-01-19T21:51:18.764Z,2.93
2019-01-19T21:53:51.738Z,2.67
2019-01-19T21:56:24.688Z,3.00
2019-01-19T21:58:57.515Z,3.07
2019-01-19T22:01:30.457Z,2.80
2019-01-19T22:04:03.290Z,3.10
2019-01-19T22:06:39.039Z,2.60
2019-01-19T22:09:11.684Z,2.60
2019-01-19T22:11:44.734Z,2.50
2019-01-19T22:14:17.229Z,2.30
2019-01-19T22:16:50.044Z,2.20
2019-01-19T22:19:22.608Z,2.23
2019-01-19T22:21:56.089Z,1.90
2019-01-19T22:24:30.470Z,1.97
2019-01-19T22:27:04.365Z,2.13
2019-01-19T22:29:38.676Z,2.40
2019-01-19T22:32:13.480Z,1.70
2019-01-19T22:34:46.651Z,1.80
2019-01-19T22:37:20.699Z,1.77
2019-01-19T22:39:53.614Z,2.33
2019-01-19T22:42:27.485Z,2.03
2019-01-19T22:45:01.980Z,2.07
2019-01-19T22:47:35.204Z,2.30
2019-01-19T22:50:11.389Z,2.03
2019-01-19T22:52:44.349Z,1.90
2019-01-19T22:55:17.348Z,1.83
2019-01-19T22:57:51.285Z,1.90
2019-01-19T23:01:01.945Z,1.83
2019-01-19T23:03:38.044Z,1.90
2019-01-19T23:06:11.184Z,1.47
2019-01-19T23:08:44.759Z,1.93
2019-01-19T23:11:17.820Z,1.60
2019-01-19T23:13:51.419Z,1.83
2019-01-19T23:16:24.699Z,1.60
2019-01-19T23:18:57.964Z,1.90
2019-01-19T23:21:30.834Z,1.57
2019-01-19T23:24:03.383Z,1.50
2019-01-19T23:26:37.155Z,1.87
2019-01-19T23:29:09.624Z,1.63
2019-01-19T23:31:42.441Z,1.70
2019-01-19T23:34:15.129Z,1.90
2019-01-19T23:36:48.140Z,1.70
2019-01-19T23:39:21.171Z,1.40
2019-01-19T23:42:00.309Z,1.80
2019-01-19T23:44:32.879Z,2.07
2019-01-19T23:47:05.519Z,1.93
2019-01-19T23:49:38.431Z,1.97
2019-01-19T23:52:10.354Z,2.23
2019-01-19T23:54:42.874Z,1.27
2019-01-19T23:57:15.719Z,1.20
2019-01-19T23:59:48.494Z,1.87
